createdAt,value
2023-04-27T00:01:42.239Z,97226.97
2023-04-27T00:04:09.638Z,97223.13
2023-04-27T00:06:36.887Z,97231.81
2023-04-27T00:09:04.653Z,97222.75
2023-04-27T00:11:31.942Z,97222.84
2023-04-27T00:13:58.988Z,97226.31
2023-04-27T00:16:26.323Z,97227.53
2023-04-27T00:18:53.303Z,97231.28
2023-04-27T00:21:20.376Z,97230.16
2023-04-27T00:23:47.513Z,97231.38
2023-04-27T00:26:14.575Z,97226.31
2023-04-27T00:28:44.227Z,97225.06
2023-04-27T00:31:11.594Z,97221.75
2023-04-27T00:33:38.693Z,97222.69
2023-04-27T00:36:06.189Z,97220.22
2023-04-27T00:38:33.195Z,97228.06
2023-04-27T00:41:07.008Z,97231.63
2023-04-27T00:43:41.768Z,97229.28
2023-04-27T00:46:09.601Z,97226.28
2023-04-27T00:48:37.498Z,97229.84
2023-04-27T00:51:05.341Z,97236.03
2023-04-27T00:53:34.462Z,97236.56
2023-04-27T00:56:01.552Z,97233.97
2023-04-27T00:58:29.287Z,97226.13
2023-04-27T01:00:56.590Z,97229.72
2023-04-27T01:03:23.960Z,97230.53
2023-04-27T01:05:51.184Z,97233.28
2023-04-27T01:08:18.247Z,97235.03
2023-04-27T01:10:45.338Z,97230.78
2023-04-27T01:13:12.573Z,97234.91
2023-04-27T01:15:39.566Z,97246.16
2023-04-27T01:18:10.033Z,97238.75
2023-04-27T01:20:38.901Z,97234.47
2023-04-27T01:23:06.474Z,97245.16
2023-04-27T01:25:33.667Z,97244.50
2023-04-27T01:28:03.042Z,97250.53
2023-04-27T01:30:30.532Z,97236.78
2023-04-27T01:32:59.344Z,97246.13
2023-04-27T01:35:28.246Z,97235.53
2023-04-27T01:38:00.432Z,97240.88
2023-04-27T01:40:27.593Z,97243.63
2023-04-27T01:42:54.630Z,97259.28
2023-04-27T01:45:21.860Z,97247.88
2023-04-27T01:47:52.102Z,97255.13
2023-04-27T01:50:20.964Z,97250.50
2023-04-27T01:52:47.997Z,97252.53
2023-04-27T01:55:15.174Z,97243.88
2023-04-27T01:57:43.064Z,97269.13
2023-04-27T02:00:10.878Z,97273.53
2023-04-27T02:02:53.756Z,97281.63
2023-04-27T02:05:22.058Z,97275.59
2023-04-27T02:07:49.708Z,97269.94
2023-04-27T02:10:16.913Z,97272.53
2023-04-27T02:12:45.229Z,97280.09
2023-04-27T02:15:12.388Z,97279.25
2023-04-27T02:17:40.112Z,97275.97
2023-04-27T02:20:07.866Z,97276.38
2023-04-27T02:22:35.841Z,97281.56
2023-04-27T02:25:03.108Z,97292.25
2023-04-27T02:27:30.110Z,97301.03
2023-04-27T02:29:58.317Z,97301.16
2023-04-27T02:32:25.882Z,97301.16
2023-04-27T02:34:52.999Z,97295.13
2023-04-27T02:37:19.957Z,97299.06
2023-04-27T02:39:47.486Z,97296.63
2023-04-27T02:42:14.862Z,97297.03
2023-04-27T02:44:43.105Z,97297.88
2023-04-27T02:47:11.114Z,97289.63
2023-04-27T02:49:38.487Z,97292.34
2023-04-27T02:52:05.952Z,97294.94
2023-04-27T02:54:33.098Z,97293.28
2023-04-27T02:57:00.158Z,97296.84
2023-04-27T02:59:27.349Z,97289.88
2023-04-27T03:01:54.602Z,97292.75
2023-04-27T03:04:21.706Z,97304.00
2023-04-27T03:06:49.154Z,97293.81
2023-04-27T03:09:16.472Z,97303.84
2023-04-27T03:11:43.964Z,97314.03
2023-04-27T03:14:12.813Z,97309.63
2023-04-27T03:16:40.405Z,97311.66
2023-04-27T03:19:07.635Z,97319.78
2023-04-27T03:21:34.755Z,97323.22
2023-04-27T03:24:01.937Z,97316.50
2023-04-27T03:26:28.929Z,97326.09
2023-04-27T03:28:57.910Z,97311.28
2023-04-27T03:31:28.784Z,97316.75
2023-04-27T03:33:55.802Z,97323.03
2023-04-27T03:36:22.881Z,97326.59
2023-04-27T03:38:50.016Z,97331.09
2023-04-27T03:41:17.196Z,97332.88
2023-04-27T03:43:44.182Z,97327.69
2023-04-27T03:46:11.382Z,97333.59
2023-04-27T03:48:38.660Z,97335.09
2023-04-27T03:51:06.911Z,97348.00
2023-04-27T03:53:34.446Z,97344.56
2023-04-27T03:56:02.496Z,97348.28
2023-04-27T03:58:29.662Z,97348.13
2023-04-27T04:01:19.018Z,97347.75
2023-04-27T04:03:48.435Z,97358.63
2023-04-27T04:06:15.581Z,97349.84
2023-04-27T04:08:42.698Z,97368.09
2023-04-27T04:11:10.254Z,97357.91
2023-04-27T04:13:37.843Z,97363.13
2023-04-27T04:16:06.905Z,97363.94
2023-04-27T04:18:35.035Z,97374.13
2023-04-27T04:21:02.383Z,97372.09
2023-04-27T04:23:29.891Z,97371.13
2023-04-27T04:25:57.945Z,97368.00
2023-04-27T04:28:28.921Z,97370.59
2023-04-27T04:30:56.972Z,97362.66
2023-04-27T04:33:24.436Z,97361.06
2023-04-27T04:35:51.883Z,97364.66
2023-04-27T04:38:19.337Z,97366.88
2023-04-27T04:40:46.551Z,97371.84
2023-04-27T04:43:13.719Z,97370.31
2023-04-27T04:45:42.817Z,97374.69
2023-04-27T04:48:14.457Z,97369.34
2023-04-27T04:50:42.215Z,97372.84
2023-04-27T04:54:18.841Z,97382.75
2023-04-27T04:56:48.158Z,97384.09
2023-04-27T04:59:15.347Z,97381.78
2023-04-27T05:01:42.638Z,97392.88
2023-04-27T05:04:09.777Z,97395.13
2023-04-27T05:06:36.909Z,97385.78
2023-04-27T05:09:06.584Z,97391.44
2023-04-27T05:11:33.622Z,97388.31
2023-04-27T05:14:00.689Z,97384.03
2023-04-27T05:16:27.954Z,97381.84
2023-04-27T05:18:55.003Z,97383.81
2023-04-27T05:21:22.359Z,97376.97
2023-04-27T05:23:49.641Z,97366.88
2023-04-27T05:26:18.261Z,97367.66
2023-04-27T05:28:47.128Z,97370.97
2023-04-27T05:31:14.215Z,97371.22
2023-04-27T05:33:41.409Z,97372.88
2023-04-27T05:36:09.380Z,97367.22
2023-04-27T05:38:40.278Z,97367.28
2023-04-27T05:41:07.686Z,97368.19
2023-04-27T05:43:35.362Z,97379.97
2023-04-27T05:46:02.355Z,97378.38
2023-04-27T05:48:29.433Z,97381.41
2023-04-27T05:51:03.577Z,97385.81
2023-04-27T05:53:31.035Z,97374.53
2023-04-27T05:55:59.412Z,97380.88
2023-04-27T05:58:26.655Z,97376.44
2023-04-27T06:00:54.524Z,97388.00
2023-04-27T06:03:21.904Z,97394.75
2023-04-27T06:05:58.854Z,97397.38
2023-04-27T06:08:27.140Z,97390.50
2023-04-27T06:10:54.842Z,97412.63
2023-04-27T06:13:21.900Z,97409.75
2023-04-27T06:15:49.087Z,97409.19
2023-04-27T06:18:16.362Z,97411.09
2023-04-27T06:20:43.346Z,97408.66
2023-04-27T06:23:10.416Z,97418.38
2023-04-27T06:25:39.031Z,97421.56
2023-04-27T06:28:06.747Z,97425.13
2023-04-27T06:30:33.749Z,97419.50
2023-04-27T06:33:00.808Z,97427.06
2023-04-27T06:35:27.870Z,97424.31
2023-04-27T06:37:58.958Z,97435.03
2023-04-27T06:40:27.202Z,97431.88
2023-04-27T06:42:54.283Z,97447.13
2023-04-27T06:45:21.287Z,97435.31
2023-04-27T06:47:48.388Z,97450.19
2023-04-27T06:50:16.524Z,97446.03
2023-04-27T06:52:43.852Z,97460.34
2023-04-27T06:55:11.060Z,97460.91
2023-04-27T06:57:38.182Z,97469.28
2023-04-27T07:00:05.871Z,97464.19
2023-04-27T07:02:33.066Z,97474.25
2023-04-27T07:05:00.556Z,97472.44
2023-04-27T07:07:27.693Z,97469.63
2023-04-27T07:09:54.753Z,97474.28
2023-04-27T07:12:21.842Z,97472.94
2023-04-27T07:14:50.955Z,97468.06
2023-04-27T07:17:18.096Z,97472.94
2023-04-27T07:19:45.133Z,97472.63
2023-04-27T07:22:12.265Z,97473.97
2023-04-27T07:24:39.363Z,97471.47
2023-04-27T07:27:06.398Z,97471.09
2023-04-27T07:29:34.302Z,97478.75
2023-04-27T07:32:01.614Z,97477.25
2023-04-27T07:34:35.028Z,97483.56
2023-04-27T07:37:09.248Z,97488.78
2023-04-27T07:39:36.959Z,97496.19
2023-04-27T07:42:04.363Z,97488.72
2023-04-27T07:44:31.495Z,97496.25
2023-04-27T07:46:58.695Z,97501.72
2023-04-27T07:49:26.505Z,97501.25
2023-04-27T07:51:53.601Z,97502.06
2023-04-27T07:54:20.727Z,97493.44
2023-04-27T07:56:47.838Z,97498.47
2023-04-27T07:59:15.809Z,97503.97
2023-04-27T08:01:43.052Z,97513.03
2023-04-27T08:04:10.474Z,97503.94
2023-04-27T08:06:38.338Z,97501.47
2023-04-27T08:09:06.138Z,97506.97
2023-04-27T08:11:33.115Z,97510.81
2023-04-27T08:14:00.096Z,97506.38
2023-04-27T08:16:27.799Z,97507.97
2023-04-27T08:18:54.948Z,97505.13
2023-04-27T08:21:21.916Z,97523.69
2023-04-27T08:23:48.978Z,97503.78
2023-04-27T08:26:16.755Z,97503.41
2023-04-27T08:28:43.766Z,97495.94
2023-04-27T08:31:10.962Z,97499.59
2023-04-27T08:33:38.035Z,97508.28
2023-04-27T08:36:05.470Z,97510.00
2023-04-27T08:38:34.834Z,97494.06
2023-04-27T08:41:14.180Z,97501.34
2023-04-27T08:43:49.994Z,97492.59
2023-04-27T08:46:21.452Z,97486.84
2023-04-27T08:48:52.113Z,97475.50
2023-04-27T08:51:20.190Z,97493.41
2023-04-27T08:53:52.826Z,97479.59
2023-04-27T08:56:23.455Z,97482.63
2023-04-27T08:58:50.519Z,97468.75
2023-04-27T09:01:18.021Z,97462.06
2023-04-27T09:03:49.290Z,97464.81
2023-04-27T09:06:16.868Z,97475.28
2023-04-27T09:08:45.797Z,97467.88
2023-04-27T09:11:14.346Z,97457.06
2023-04-27T09:13:45.220Z,97465.81
2023-04-27T09:16:16.363Z,97462.38
2023-04-27T09:18:44.740Z,97470.88
2023-04-27T09:21:21.894Z,97456.41
2023-04-27T09:23:48.977Z,97479.34
2023-04-27T09:26:22.004Z,97473.91
2023-04-27T09:28:51.520Z,97469.56
2023-04-27T09:31:18.807Z,97459.13
2023-04-27T09:33:46.348Z,97468.28
2023-04-27T09:36:14.108Z,97468.81
2023-04-27T09:38:41.228Z,97469.06
2023-04-27T09:41:09.010Z,97469.47
2023-04-27T09:43:36.968Z,97471.44
2023-04-27T10:17:16.317Z,97463.25
2023-04-27T10:19:57.317Z,97473.41
2023-04-27T10:22:37.791Z,97485.94
2023-04-27T10:25:19.758Z,97486.09
2023-04-27T10:27:52.592Z,97499.94
2023-04-27T10:30:21.547Z,97494.66
2023-04-27T10:32:59.611Z,97505.16
2023-04-27T10:35:41.664Z,97503.72
2023-04-27T10:38:09.740Z,97507.34
2023-04-27T10:40:38.444Z,97507.66
2023-04-27T10:43:10.080Z,97505.03
2023-04-27T10:45:37.279Z,97513.72
2023-04-27T10:48:05.389Z,97506.69
2023-04-27T10:50:32.513Z,97501.41
2023-04-27T10:53:07.314Z,97509.31
2023-04-27T10:55:35.856Z,97516.56
2023-04-27T10:58:04.408Z,97509.44
2023-04-27T11:00:34.248Z,97506.34
2023-04-27T11:03:13.218Z,97498.25
2023-04-27T11:05:40.788Z,97504.16
2023-04-27T11:08:20.616Z,97499.91
2023-04-27T11:10:50.387Z,97497.25
2023-04-27T11:13:22.870Z,97497.44
2023-04-27T11:15:55.369Z,97503.22
2023-04-27T11:18:24.649Z,97512.34
2023-04-27T11:20:53.743Z,97509.81
2023-04-27T11:23:29.021Z,97512.22
2023-04-27T11:25:56.952Z,97497.56
2023-04-27T11:28:24.653Z,97498.50
2023-04-27T11:31:00.872Z,97511.50
2023-04-27T11:33:28.715Z,97504.00
2023-04-27T11:35:56.822Z,97501.81
2023-04-27T11:38:24.327Z,97499.22
2023-04-27T11:41:06.341Z,97515.00
2023-04-27T11:43:34.352Z,97515.34
2023-04-27T11:46:06.127Z,97504.28
2023-04-27T11:48:33.197Z,97527.16
2023-04-27T11:51:01.573Z,97516.06
2023-04-27T11:53:36.842Z,97534.53
2023-04-27T11:56:05.737Z,97534.25
2023-04-27T11:58:37.393Z,97532.84
2023-04-27T12:01:05.619Z,97534.31
2023-04-27T12:03:32.968Z,97518.16
2023-04-27T12:06:16.113Z,97523.44
2023-04-27T12:08:47.168Z,97527.66
2023-04-27T12:11:14.247Z,97537.41
2023-04-27T12:13:41.279Z,97538.16
2023-04-27T12:16:08.338Z,97530.34
2023-04-27T12:18:35.395Z,97529.25
2023-04-27T12:21:03.423Z,97532.47
2023-04-27T12:23:31.112Z,97546.16
2023-04-27T12:25:58.080Z,97551.72
2023-04-27T12:28:25.066Z,97546.97
2023-04-27T12:30:52.086Z,97545.34
2023-04-27T12:33:19.270Z,97537.59
2023-04-27T12:35:46.345Z,97544.66
2023-04-27T12:38:13.364Z,97559.66
2023-04-27T12:40:40.547Z,97558.47
2023-04-27T12:43:08.999Z,97547.47
2023-04-27T12:45:35.979Z,97560.28
2023-04-27T12:48:04.153Z,97563.25
2023-04-27T12:50:32.504Z,97565.25
2023-04-27T12:53:00.380Z,97570.19
2023-04-27T12:55:33.785Z,97562.44
2023-04-27T12:58:02.389Z,97563.94
2023-04-27T13:00:29.956Z,97562.47
2023-04-27T13:02:57.638Z,97564.94
2023-04-27T13:05:24.778Z,97560.34
2023-04-27T13:07:52.447Z,97572.81
2023-04-27T13:10:19.520Z,97559.66
2023-04-27T13:12:46.654Z,97567.69
2023-04-27T13:15:13.704Z,97557.69
2023-04-27T13:17:43.507Z,97571.50
2023-04-27T13:20:11.856Z,97576.78
2023-04-27T13:22:40.954Z,97576.09
2023-04-27T13:25:09.554Z,97575.13
2023-04-27T13:27:36.786Z,97577.28
2023-04-27T13:30:05.352Z,97575.28
2023-04-27T13:32:32.661Z,97579.09
2023-04-27T13:34:59.778Z,97582.34
2023-04-27T13:37:27.208Z,97572.84
2023-04-27T13:39:54.178Z,97584.31
2023-04-27T13:42:21.662Z,97589.88
2023-04-27T13:44:48.647Z,97585.13
2023-04-27T13:47:15.651Z,97596.38
2023-04-27T13:49:42.865Z,97586.00
2023-04-27T13:52:09.971Z,97585.66
2023-04-27T13:54:37.353Z,97590.75
2023-04-27T13:57:04.419Z,97598.59
2023-04-27T13:59:31.471Z,97604.31
2023-04-27T14:01:58.533Z,97601.22
2023-04-27T14:04:25.778Z,97587.03
2023-04-27T14:06:52.934Z,97583.47
2023-04-27T14:09:20.511Z,97581.03
2023-04-27T14:11:56.451Z,97592.56
2023-04-27T14:14:24.425Z,97588.13
2023-04-27T14:17:23.809Z,97585.84
2023-04-27T14:19:50.855Z,97584.97
2023-04-27T14:22:18.103Z,97582.63
2023-04-27T14:24:45.045Z,97578.22
2023-04-27T14:27:12.066Z,97583.78
2023-04-27T14:29:39.040Z,97578.53
2023-04-27T14:32:06.460Z,97592.50
2023-04-27T14:34:33.530Z,97594.97
2023-04-27T14:37:00.670Z,97598.41
2023-04-27T14:39:28.255Z,97598.19
2023-04-27T14:41:55.246Z,97605.56
2023-04-27T14:44:22.391Z,97604.56
2023-04-27T14:46:49.382Z,97616.75
2023-04-27T14:49:16.649Z,97622.50
2023-04-27T14:51:43.873Z,97616.25
2023-04-27T14:54:11.424Z,97616.75
2023-04-27T14:56:38.383Z,97607.91
2023-04-27T14:59:05.788Z,97620.97
2023-04-27T15:01:32.795Z,97614.41
2023-04-27T15:03:59.994Z,97623.97
2023-04-27T15:06:30.486Z,97612.72
2023-04-27T15:08:57.805Z,97622.97
2023-04-27T15:11:24.824Z,97621.84
2023-04-27T15:13:51.821Z,97619.22
2023-04-27T15:16:20.184Z,97633.00
2023-04-27T15:18:47.332Z,97628.66
2023-04-27T15:21:14.344Z,97629.63
2023-04-27T15:23:41.431Z,97633.75
2023-04-27T15:26:08.510Z,97625.91
2023-04-27T15:28:36.451Z,97635.13
2023-04-27T15:31:03.744Z,97632.13
2023-04-27T15:33:30.794Z,97647.91
2023-04-27T15:35:59.167Z,97638.50
2023-04-27T15:38:26.796Z,97653.88
2023-04-27T15:40:53.807Z,97651.72
2023-04-27T15:43:21.881Z,97657.03
2023-04-27T15:45:49.213Z,97657.50
2023-04-27T15:48:16.603Z,97655.19
2023-04-27T15:50:45.334Z,97665.97
2023-04-27T15:53:12.984Z,97664.50
2023-04-27T15:55:40.543Z,97663.78
2023-04-27T15:58:07.564Z,97662.97
2023-04-27T16:00:35.175Z,97666.25
2023-04-27T16:03:02.312Z,97673.84
2023-04-27T16:05:29.591Z,97669.22
2023-04-27T16:07:56.640Z,97668.81
2023-04-27T16:10:23.726Z,97665.66
2023-04-27T16:12:50.733Z,97681.19
2023-04-27T16:15:17.887Z,97666.75
2023-04-27T16:17:45.090Z,97675.44
2023-04-27T16:20:12.270Z,97678.06
2023-04-27T16:22:39.332Z,97683.59
2023-04-27T16:25:12.512Z,97683.38
2023-04-27T16:27:40.065Z,97691.53
2023-04-27T16:30:07.726Z,97690.78
2023-04-27T16:32:35.739Z,97691.06
2023-04-27T16:35:03.377Z,97696.72
2023-04-27T16:37:30.597Z,97694.19
2023-04-27T16:40:01.583Z,97698.88
2023-04-27T16:42:28.920Z,97697.94
2023-04-27T16:44:56.609Z,97699.41
2023-04-27T16:47:23.636Z,97708.41
2023-04-27T16:49:51.359Z,97710.78
2023-04-27T16:52:18.743Z,97708.31
2023-04-27T16:54:46.175Z,97717.41
2023-04-27T16:57:13.426Z,97720.91
2023-04-27T16:59:40.634Z,97719.94
2023-04-27T17:02:22.874Z,97717.19
2023-04-27T17:04:51.881Z,97720.63
2023-04-27T17:07:19.044Z,97720.78
2023-04-27T17:09:46.080Z,97728.09
2023-04-27T17:12:14.970Z,97718.88
2023-04-27T17:14:42.825Z,97723.53
2023-04-27T17:17:10.982Z,97726.31
2023-04-27T17:19:39.189Z,97731.81
2023-04-27T17:22:08.189Z,97732.25
2023-04-27T17:24:35.197Z,97737.06
2023-04-27T17:27:04.247Z,97739.53
2023-04-27T17:29:31.829Z,97741.88
2023-04-27T17:31:58.907Z,97742.28
2023-04-27T17:34:26.003Z,97750.25
2023-04-27T17:36:53.116Z,97743.38
2023-04-27T17:39:22.696Z,97764.44
2023-04-27T17:41:49.751Z,97766.22
2023-04-27T17:44:17.308Z,97769.22
2023-04-27T17:46:49.254Z,97771.28
2023-04-27T17:49:18.407Z,97774.56
2023-04-27T17:51:46.478Z,97775.53
2023-04-27T17:54:13.503Z,97794.22
2023-04-27T17:56:40.531Z,97794.09
2023-04-27T17:59:08.565Z,97792.81
2023-04-27T18:01:35.839Z,97786.88
2023-04-27T18:04:04.514Z,97798.53
2023-04-27T18:06:32.203Z,97798.97
2023-04-27T18:08:59.224Z,97798.72
2023-04-27T18:11:26.505Z,97799.56
2023-04-27T18:13:58.241Z,97804.22
2023-04-27T18:16:25.955Z,97806.28
2023-04-27T18:18:52.961Z,97801.38
2023-04-27T18:21:20.000Z,97815.56
2023-04-27T18:23:47.122Z,97814.06
2023-04-27T18:26:14.234Z,97812.47
2023-04-27T18:28:41.944Z,97816.59
2023-04-27T18:31:16.436Z,97817.16
2023-04-27T18:33:47.205Z,97820.41
2023-04-27T18:36:14.373Z,97812.13
2023-04-27T18:38:41.382Z,97821.53
2023-04-27T18:41:08.601Z,97828.34
2023-04-27T18:43:37.016Z,97824.88
2023-04-27T18:46:04.793Z,97824.22
2023-04-27T18:48:32.686Z,97817.41
2023-04-27T18:50:59.676Z,97818.63
2023-04-27T18:53:27.430Z,97822.47
2023-04-27T18:55:54.400Z,97821.50
2023-04-27T18:58:21.685Z,97829.72
2023-04-27T19:00:48.822Z,97835.06
2023-04-27T19:03:16.652Z,97838.09
2023-04-27T19:05:44.215Z,97838.25
2023-04-27T19:08:11.341Z,97839.44
2023-04-27T19:10:41.274Z,97840.38
2023-04-27T19:13:08.647Z,97847.72
2023-04-27T19:15:35.898Z,97852.44
2023-04-27T19:18:10.691Z,97845.44
2023-04-27T19:20:38.967Z,97850.78
2023-04-27T19:23:06.058Z,97845.34
2023-04-27T19:25:33.079Z,97840.13
2023-04-27T19:28:00.537Z,97845.19
2023-04-27T19:30:27.830Z,97843.59
2023-04-27T19:32:54.934Z,97838.38
2023-04-27T19:35:23.942Z,97846.13
2023-04-27T19:37:51.188Z,97840.72
2023-04-27T19:40:18.544Z,97846.44
2023-04-27T19:42:45.757Z,97850.84
2023-04-27T19:45:13.236Z,97847.63
2023-04-27T19:47:40.365Z,97842.44
2023-04-27T19:50:07.892Z,97855.41
2023-04-27T19:52:34.920Z,97859.34
2023-04-27T19:55:01.948Z,97855.69
2023-04-27T19:57:29.078Z,97859.72
2023-04-27T19:59:56.455Z,97861.09
2023-04-27T20:02:23.547Z,97865.31
2023-04-27T20:04:51.027Z,97869.75
2023-04-27T20:07:18.279Z,97872.03
2023-04-27T20:09:45.320Z,97869.44
2023-04-27T20:12:28.822Z,97875.94
2023-04-27T20:14:59.372Z,97866.00
2023-04-27T20:17:26.561Z,97860.91
2023-04-27T20:19:57.249Z,97871.56
2023-04-27T20:22:24.299Z,97865.03
2023-04-27T20:24:51.434Z,97866.34
2023-04-27T20:27:18.627Z,97861.97
2023-04-27T20:29:47.420Z,97875.47
2023-04-27T20:32:14.442Z,97867.09
2023-04-27T20:34:41.540Z,97880.47
2023-04-27T20:37:09.697Z,97880.84
2023-04-27T20:39:36.973Z,97887.72
2023-04-27T20:42:04.019Z,97898.88
2023-04-27T20:44:32.498Z,97896.97
2023-04-27T20:46:59.581Z,97898.97
2023-04-27T20:49:34.527Z,97901.47
2023-04-27T20:52:03.137Z,97908.81
2023-04-27T20:54:33.088Z,97908.81
2023-04-27T20:57:03.869Z,97908.56
2023-04-27T20:59:31.092Z,97903.34
2023-04-27T21:01:58.081Z,97905.38
2023-04-27T21:04:25.240Z,97904.78
2023-04-27T21:06:52.935Z,97903.94
2023-04-27T21:09:20.014Z,97918.28
2023-04-27T21:11:47.050Z,97914.13
2023-04-27T21:14:14.252Z,97917.59
2023-04-27T21:16:41.545Z,97922.34
2023-04-27T21:19:14.794Z,97926.25
2023-04-27T21:21:41.896Z,97931.34
2023-04-27T21:24:09.043Z,97923.88
2023-04-27T21:26:36.082Z,97928.94
2023-04-27T21:29:05.895Z,97934.88
2023-04-27T21:31:34.029Z,97940.78
2023-04-27T21:34:02.117Z,97936.75
2023-04-27T21:36:29.426Z,97936.72
2023-04-27T21:38:56.446Z,97933.63
2023-04-27T21:41:24.280Z,97930.75
2023-04-27T21:43:51.345Z,97930.97
2023-04-27T21:46:18.440Z,97936.03
2023-04-27T21:48:45.550Z,97929.50
2023-04-27T21:51:12.606Z,97946.59
2023-04-27T21:53:39.583Z,97949.44
2023-04-27T21:56:06.928Z,97941.03
2023-04-27T21:58:33.884Z,97938.41
2023-04-27T22:01:01.342Z,97937.44
2023-04-27T22:03:29.060Z,97933.44
2023-04-27T22:05:57.764Z,97931.53
2023-04-27T22:08:24.938Z,97946.63
2023-04-27T22:10:52.096Z,97941.84
2023-04-27T22:13:19.743Z,97944.06
2023-04-27T22:15:47.678Z,97954.41
2023-04-27T22:18:15.679Z,97955.94
2023-04-27T22:20:43.191Z,97947.63
2023-04-27T22:23:10.912Z,97959.19
2023-04-27T22:25:37.871Z,97952.44
2023-04-27T22:28:05.020Z,97953.41
2023-04-27T22:30:31.999Z,97945.47
2023-04-27T22:32:59.283Z,97952.13
2023-04-27T22:35:27.816Z,97959.03
2023-04-27T22:37:55.991Z,97959.13
2023-04-27T22:40:23.311Z,97940.00
2023-04-27T22:42:50.826Z,97943.16
2023-04-27T22:45:17.834Z,97938.53
2023-04-27T22:47:46.116Z,97931.63
2023-04-27T22:50:13.865Z,97935.00
2023-04-27T22:52:44.427Z,97929.81
2023-04-27T22:55:12.800Z,97933.53
2023-04-27T22:57:41.596Z,97927.50
2023-04-27T23:00:11.259Z,97924.50
2023-04-27T23:02:41.872Z,97926.63
2023-04-27T23:05:10.941Z,97925.06
2023-04-27T23:07:38.947Z,97920.09
2023-04-27T23:10:06.456Z,97920.81
2023-04-27T23:12:33.666Z,97926.59
2023-04-27T23:15:00.708Z,97932.13
2023-04-27T23:17:30.833Z,97932.13
2023-04-27T23:19:59.492Z,97926.91
2023-04-27T23:22:27.369Z,97930.34
2023-04-27T23:24:54.695Z,97925.78
2023-04-27T23:27:22.770Z,97932.78
2023-04-27T23:29:49.763Z,97923.63
2023-04-27T23:32:17.280Z,97929.53
2023-04-27T23:34:44.345Z,97928.66
2023-04-27T23:37:11.389Z,97923.91
2023-04-27T23:39:38.445Z,97923.19
2023-04-27T23:42:05.570Z,97924.00
2023-04-27T23:44:32.708Z,97918.09
2023-04-27T23:46:59.722Z,97919.63
2023-04-27T23:49:26.696Z,97927.69
2023-04-27T23:51:53.758Z,97926.44
2023-04-27T23:54:20.708Z,97932.50
2023-04-27T23:56:47.721Z,97932.00
2023-04-27T23:59:15.341Z,97932.81
